21kousinmaru — JD2168 — position and weather

sailwx.info

Track history (hours):
 
Tides and Currents Weather Stations Pressure Air Temp Water Temp Dewpoint Dewpoint Depression Visibility Wind Speed Wind Dir Waves Ship Positions

21kousinmaru

Last reported at 2014-Dec-14 06:06 UTC. Time now 2014-Dec-21 10:45 UTC.
Position N 34°37' E 135°01'.

Length 68 m; draft 4 m.

Type: Tanker. MMSI: 431501835.

Date/timePositionNaut miles runAvg speedWind from/ knotsBaromVisibWave heightAir tempDewpointWater temp
2014-Dec-14 06:06N 34°37' E 135°01'712.5
2014-Dec-14 05:33N 34°35' E 135°09'1211.9
2014-Dec-14 04:33N 34°34' E 135°23'2 0.4
2014-Dec-13 23:16N 34°32' E 135°25'6 7.9
2014-Dec-13 22:33N 34°32' E 135°18'0 0.1
2014-Dec-13 21:33N 34°32' E 135°18'0 0.0
2014-Dec-13 20:31N 34°32' E 135°18'0 0.0
2014-Dec-13 19:28N 34°32' E 135°18'0 0.0
2014-Dec-13 18:33N 34°32' E 135°18'0 0.0
2014-Dec-13 17:33N 34°32' E 135°18'0 0.0
2014-Dec-13 16:30N 34°32' E 135°18'0 0.0
2014-Dec-13 15:31N 34°32' E 135°18'0 0.0
2014-Dec-13 14:30N 34°32' E 135°18'0 0.0
2014-Dec-13 13:33N 34°32' E 135°18'0 0.0
2014-Dec-13 12:33N 34°32' E 135°18'0 0.4
2014-Dec-13 11:33N 34°32' E 135°18'1212.1
2014-Dec-13 10:32N 34°23' E 135°07'1110.9
2014-Dec-13 09:33N 34°15' E 134°60'243 8.9
2014-Dec-12 06:17N 35°13' E 139°46'912.4
2014-Dec-12 05:33N 35°22' E 139°42'9 0.5
2014-Dec-11 12:18N 35°28' E 139°51'912.2
2014-Dec-11 11:33N 35°20' E 139°45'  
2014-Dec-07 05:18N 34°13' E 134°40'  
Track history (hours):
 
Tides and Currents Weather Stations Pressure Air Temp Water Temp Dewpoint Dewpoint Depression Visibility Wind Speed Wind Dir Waves Ship Positions

21kousinmaru

Last reported at 2014-Dec-14 06:06 UTC. Time now 2014-Dec-21 10:45 UTC.
Position N 34°37' E 135°01'.

Length 68 m; draft 4 m.

Type: Tanker. MMSI: 431501835.

Date/timePositionNaut miles runAvg speedWind from/ knotsBaromVisibWave heightAir tempDewpointWater temp
2014-Dec-14 06:06N 34°37' E 135°01'712.5
2014-Dec-14 05:33N 34°35' E 135°09'1211.9
2014-Dec-14 04:33N 34°34' E 135°23'2 0.4
2014-Dec-13 23:16N 34°32' E 135°25'6 7.9
2014-Dec-13 22:33N 34°32' E 135°18'0 0.1
2014-Dec-13 21:33N 34°32' E 135°18'0 0.0
2014-Dec-13 20:31N 34°32' E 135°18'0 0.0
2014-Dec-13 19:28N 34°32' E 135°18'0 0.0
2014-Dec-13 18:33N 34°32' E 135°18'0 0.0
2014-Dec-13 17:33N 34°32' E 135°18'0 0.0
2014-Dec-13 16:30N 34°32' E 135°18'0 0.0
2014-Dec-13 15:31N 34°32' E 135°18'0 0.0
2014-Dec-13 14:30N 34°32' E 135°18'0 0.0
2014-Dec-13 13:33N 34°32' E 135°18'0 0.0
2014-Dec-13 12:33N 34°32' E 135°18'0 0.4
2014-Dec-13 11:33N 34°32' E 135°18'1212.1
2014-Dec-13 10:32N 34°23' E 135°07'1110.9
2014-Dec-13 09:33N 34°15' E 134°60'243 8.9
2014-Dec-12 06:17N 35°13' E 139°46'912.4
2014-Dec-12 05:33N 35°22' E 139°42'9 0.5
2014-Dec-11 12:18N 35°28' E 139°51'912.2
2014-Dec-11 11:33N 35°20' E 139°45'  
2014-Dec-07 05:18N 34°13' E 134°40'  

Dump ship's entire track history